This is the latest recevied weather packets stored in our database for station/object PP5FMM-13. If no packets are shown the sender has not sent any weather packets the latest 1 day(s).
| Time | Temp. | Humidity | Pressure | Rain* | Wind** | Luminosity | Snow |
|---|---|---|---|---|---|---|---|
| 1778079335 | 28.89° C | 91% | 1018.5 hPa | - | - | - | - |
| 1778079035 | 28.33° C | 91% | 1018.7 hPa | - | - | - | - |
| 1778078735 | 28.33° C | 92% | 1018.8 hPa | - | - | - | - |
| 1778078435 | 28.33° C | 91% | 1018.9 hPa | - | - | - | - |
| 1778078135 | 28.33° C | 92% | 1018.9 hPa | - | - | - | - |
| 1778077846 | 28.33° C | 91% | 1019.1 hPa | - | - | - | - |
| 1778077535 | 28.33° C | 91% | 1019.2 hPa | - | - | - | - |
| 1778077235 | 28.33° C | 91% | 1019.2 hPa | - | - | - | - |
| 1778076935 | 28.89° C | 90% | 1019.3 hPa | - | - | - | - |
| 1778076635 | 28.89° C | 90% | 1019.4 hPa | - | - | - | - |
| 1778075435 | 28.89° C | 88% | 1019.8 hPa | - | - | - | - |
| 1778073935 | 30° C | 81% | 1019.8 hPa | - | - | - | - |
| 1778073335 | 30.56° C | 79% | 1019.8 hPa | - | - | - | - |
| 1778072735 | 31.11° C | 79% | 1019.9 hPa | - | - | - | - |
| 1778072435 | 31.11° C | 78% | 1019.8 hPa | - | - | - | - |
| 1778072135 | 31.11° C | 78% | 1019.8 hPa | - | - | - | - |
| 1778071835 | 31.11° C | 79% | 1019.8 hPa | - | - | - | - |
| 1778071235 | 30.56° C | 80% | 1019.8 hPa | - | - | - | - |
| 1778070635 | 30° C | 82% | 1019.8 hPa | - | - | - | - |
| 1778070335 | 30° C | 84% | 1019.8 hPa | - | - | - | - |
| 1778070036 | 29.44° C | 86% | 1019.8 hPa | - | - | - | - |
| 1778069735 | 29.44° C | 87% | 1019.8 hPa | - | - | - | - |
| 1778069435 | 28.89° C | 90% | 1019.8 hPa | - | - | - | - |
| 1778068836 | 28.33° C | 95% | 1019.9 hPa | - | - | - | - |
| 1778068536 | 27.78° C | 96% | 1019.9 hPa | - | - | - | - |
* Rain since midnight (hover to see other rain measurements)
** Current wind speed in m/s (hover to see current wind gust speed)